sensor_id;sensor_type;location;lat;lon;timestamp;temperature;humidity
42841;DHT22;28491;46.898;7.660;2023-05-19T00:01:43;10.00;9.30
42841;DHT22;28491;46.898;7.660;2023-05-19T00:04:10;10.00;6.80
42841;DHT22;28491;46.898;7.660;2023-05-19T00:06:39;10.00;5.20
42841;DHT22;28491;46.898;7.660;2023-05-19T00:09:07;10.10;2.80
42841;DHT22;28491;46.898;7.660;2023-05-19T00:11:35;10.00;5.60
42841;DHT22;28491;46.898;7.660;2023-05-19T00:14:01;10.00;5.00
42841;DHT22;28491;46.898;7.660;2023-05-19T00:16:28;10.00;5.00
42841;DHT22;28491;46.898;7.660;2023-05-19T00:18:56;10.00;9.40
42841;DHT22;28491;46.898;7.660;2023-05-19T00:21:22;9.90;13.00
42841;DHT22;28491;46.898;7.660;2023-05-19T00:23:47;9.90;13.90
42841;DHT22;28491;46.898;7.660;2023-05-19T00:26:13;9.80;14.00
42841;DHT22;28491;46.898;7.660;2023-05-19T00:28:39;9.80;11.80
42841;DHT22;28491;46.898;7.660;2023-05-19T00:31:04;9.90;10.90
42841;DHT22;28491;46.898;7.660;2023-05-19T00:33:30;9.90;11.80
42841;DHT22;28491;46.898;7.660;2023-05-19T00:35:58;9.80;14.70
42841;DHT22;28491;46.898;7.660;2023-05-19T00:38:23;9.80;13.70
42841;DHT22;28491;46.898;7.660;2023-05-19T00:40:49;9.80;16.40
42841;DHT22;28491;46.898;7.660;2023-05-19T00:43:15;9.80;19.90
42841;DHT22;28491;46.898;7.660;2023-05-19T00:45:40;9.70;17.20
42841;DHT22;28491;46.898;7.660;2023-05-19T00:48:06;9.70;18.90
42841;DHT22;28491;46.898;7.660;2023-05-19T00:50:32;9.70;19.40
42841;DHT22;28491;46.898;7.660;2023-05-19T00:52:57;9.70;19.00
42841;DHT22;28491;46.898;7.660;2023-05-19T00:55:27;9.70;16.60
42841;DHT22;28491;46.898;7.660;2023-05-19T00:57:54;9.70;17.80
42841;DHT22;28491;46.898;7.660;2023-05-19T01:00:21;9.70;17.20
42841;DHT22;28491;46.898;7.660;2023-05-19T01:02:46;9.60;19.90
42841;DHT22;28491;46.898;7.660;2023-05-19T01:05:12;9.60;21.60
42841;DHT22;28491;46.898;7.660;2023-05-19T01:07:39;9.50;25.80
42841;DHT22;28491;46.898;7.660;2023-05-19T01:10:06;9.50;28.20
42841;DHT22;28491;46.898;7.660;2023-05-19T01:12:31;9.50;28.80
42841;DHT22;28491;46.898;7.660;2023-05-19T01:14:58;9.50;28.00
42841;DHT22;28491;46.898;7.660;2023-05-19T01:20:15;9.50;28.50
42841;DHT22;28491;46.898;7.660;2023-05-19T01:31:23;9.30;26.90
42841;DHT22;28491;46.898;7.660;2023-05-19T01:33:51;9.20;28.30
42841;DHT22;28491;46.898;7.660;2023-05-19T01:36:18;9.10;30.10
42841;DHT22;28491;46.898;7.660;2023-05-19T01:38:45;9.00;34.00
42841;DHT22;28491;46.898;7.660;2023-05-19T01:41:12;9.10;36.80
42841;DHT22;28491;46.898;7.660;2023-05-19T01:43:38;9.00;38.10
42841;DHT22;28491;46.898;7.660;2023-05-19T01:46:04;8.90;42.30
42841;DHT22;28491;46.898;7.660;2023-05-19T01:48:31;8.90;44.00
42841;DHT22;28491;46.898;7.660;2023-05-19T01:50:57;8.90;42.80
42841;DHT22;28491;46.898;7.660;2023-05-19T01:53:23;8.90;43.60
42841;DHT22;28491;46.898;7.660;2023-05-19T01:55:52;8.80;47.40
42841;DHT22;28491;46.898;7.660;2023-05-19T02:01:02;8.70;53.00
42841;DHT22;28491;46.898;7.660;2023-05-19T02:06:45;8.80;49.00
42841;DHT22;28491;46.898;7.660;2023-05-19T02:09:32;8.90;46.50
42841;DHT22;28491;46.898;7.660;2023-05-19T02:12:02;8.90;43.10
42841;DHT22;28491;46.898;7.660;2023-05-19T02:14:40;9.00;42.30
42841;DHT22;28491;46.898;7.660;2023-05-19T02:17:09;8.90;42.30
42841;DHT22;28491;46.898;7.660;2023-05-19T02:19:37;8.90;42.60
42841;DHT22;28491;46.898;7.660;2023-05-19T02:22:04;8.90;39.60
42841;DHT22;28491;46.898;7.660;2023-05-19T02:24:29;8.90;38.90
42841;DHT22;28491;46.898;7.660;2023-05-19T02:26:55;8.90;39.40
42841;DHT22;28491;46.898;7.660;2023-05-19T02:29:20;8.80;43.10
42841;DHT22;28491;46.898;7.660;2023-05-19T02:31:46;8.70;46.50
42841;DHT22;28491;46.898;7.660;2023-05-19T02:34:12;8.60;50.70
42841;DHT22;28491;46.898;7.660;2023-05-19T02:36:40;8.60;52.10
42841;DHT22;28491;46.898;7.660;2023-05-19T02:39:07;8.60;54.30
42841;DHT22;28491;46.898;7.660;2023-05-19T02:41:33;8.50;57.70
42841;DHT22;28491;46.898;7.660;2023-05-19T02:43:59;8.50;58.00
42841;DHT22;28491;46.898;7.660;2023-05-19T02:46:24;8.50;58.20
42841;DHT22;28491;46.898;7.660;2023-05-19T02:48:51;8.40;60.00
42841;DHT22;28491;46.898;7.660;2023-05-19T02:51:17;8.40;60.20
42841;DHT22;28491;46.898;7.660;2023-05-19T02:53:42;8.40;60.00
42841;DHT22;28491;46.898;7.660;2023-05-19T02:56:08;8.40;60.20
42841;DHT22;28491;46.898;7.660;2023-05-19T02:58:33;8.40;59.90
42841;DHT22;28491;46.898;7.660;2023-05-19T03:00:59;8.30;60.00
42841;DHT22;28491;46.898;7.660;2023-05-19T03:03:25;8.30;60.40
42841;DHT22;28491;46.898;7.660;2023-05-19T03:05:51;8.30;60.60
42841;DHT22;28491;46.898;7.660;2023-05-19T03:08:18;8.30;60.30
42841;DHT22;28491;46.898;7.660;2023-05-19T03:10:45;8.20;60.70
42841;DHT22;28491;46.898;7.660;2023-05-19T03:13:10;8.20;61.10
42841;DHT22;28491;46.898;7.660;2023-05-19T03:15:36;8.20;61.60
42841;DHT22;28491;46.898;7.660;2023-05-19T03:18:01;8.10;61.60
42841;DHT22;28491;46.898;7.660;2023-05-19T03:20:27;8.10;62.10
42841;DHT22;28491;46.898;7.660;2023-05-19T03:22:54;8.10;61.60
42841;DHT22;28491;46.898;7.660;2023-05-19T03:25:20;8.20;61.40
42841;DHT22;28491;46.898;7.660;2023-05-19T03:27:46;8.10;61.30
42841;DHT22;28491;46.898;7.660;2023-05-19T03:30:12;8.10;61.50
42841;DHT22;28491;46.898;7.660;2023-05-19T03:32:37;8.10;61.90
42841;DHT22;28491;46.898;7.660;2023-05-19T03:35:03;8.10;62.20
42841;DHT22;28491;46.898;7.660;2023-05-19T03:37:30;8.10;62.50
42841;DHT22;28491;46.898;7.660;2023-05-19T03:39:56;8.10;63.30
42841;DHT22;28491;46.898;7.660;2023-05-19T03:42:22;8.10;63.00
42841;DHT22;28491;46.898;7.660;2023-05-19T03:44:48;8.00;63.20
42841;DHT22;28491;46.898;7.660;2023-05-19T03:47:13;8.00;63.40
42841;DHT22;28491;46.898;7.660;2023-05-19T03:49:38;8.00;63.40
42841;DHT22;28491;46.898;7.660;2023-05-19T03:52:04;8.10;63.00
42841;DHT22;28491;46.898;7.660;2023-05-19T03:54:30;8.10;62.90
42841;DHT22;28491;46.898;7.660;2023-05-19T03:56:57;8.10;62.40
42841;DHT22;28491;46.898;7.660;2023-05-19T03:59:22;8.20;61.70
42841;DHT22;28491;46.898;7.660;2023-05-19T04:01:49;8.10;61.60
42841;DHT22;28491;46.898;7.660;2023-05-19T04:04:14;8.20;61.60
42841;DHT22;28491;46.898;7.660;2023-05-19T04:06:40;8.00;61.90
42841;DHT22;28491;46.898;7.660;2023-05-19T04:09:12;7.90;62.50
42841;DHT22;28491;46.898;7.660;2023-05-19T04:11:39;7.80;63.10
42841;DHT22;28491;46.898;7.660;2023-05-19T04:14:05;7.70;64.00
42841;DHT22;28491;46.898;7.660;2023-05-19T04:16:30;7.70;65.50
42841;DHT22;28491;46.898;7.660;2023-05-19T04:18:56;7.60;67.20
42841;DHT22;28491;46.898;7.660;2023-05-19T04:21:21;7.60;67.60
42841;DHT22;28491;46.898;7.660;2023-05-19T04:23:47;7.70;68.90
42841;DHT22;28491;46.898;7.660;2023-05-19T04:26:13;7.60;69.70
42841;DHT22;28491;46.898;7.660;2023-05-19T04:28:39;7.60;70.60
42841;DHT22;28491;46.898;7.660;2023-05-19T04:31:06;7.70;71.10
42841;DHT22;28491;46.898;7.660;2023-05-19T04:33:35;7.80;70.10
42841;DHT22;28491;46.898;7.660;2023-05-19T04:36:01;7.80;69.90
42841;DHT22;28491;46.898;7.660;2023-05-19T04:38:30;7.90;69.40
42841;DHT22;28491;46.898;7.660;2023-05-19T04:40:55;7.90;68.40
42841;DHT22;28491;46.898;7.660;2023-05-19T04:43:24;8.00;68.40
42841;DHT22;28491;46.898;7.660;2023-05-19T04:45:51;8.10;66.80
42841;DHT22;28491;46.898;7.660;2023-05-19T04:48:17;8.20;65.50
42841;DHT22;28491;46.898;7.660;2023-05-19T04:50:42;8.20;65.00
42841;DHT22;28491;46.898;7.660;2023-05-19T04:53:08;8.30;64.50
42841;DHT22;28491;46.898;7.660;2023-05-19T04:55:34;8.30;63.40
42841;DHT22;28491;46.898;7.660;2023-05-19T04:57:59;8.40;63.10
42841;DHT22;28491;46.898;7.660;2023-05-19T05:00:25;8.50;61.90
42841;DHT22;28491;46.898;7.660;2023-05-19T05:02:51;8.50;62.80
42841;DHT22;28491;46.898;7.660;2023-05-19T05:05:16;8.60;62.70
42841;DHT22;28491;46.898;7.660;2023-05-19T05:07:42;8.60;61.80
42841;DHT22;28491;46.898;7.660;2023-05-19T05:10:08;8.60;62.00
42841;DHT22;28491;46.898;7.660;2023-05-19T05:12:34;8.90;62.90
42841;DHT22;28491;46.898;7.660;2023-05-19T05:15:00;9.00;61.80
42841;DHT22;28491;46.898;7.660;2023-05-19T05:17:26;9.10;60.20
42841;DHT22;28491;46.898;7.660;2023-05-19T05:19:52;9.30;57.50
42841;DHT22;28491;46.898;7.660;2023-05-19T05:22:18;9.30;56.00
42841;DHT22;28491;46.898;7.660;2023-05-19T05:24:44;9.50;51.80
42841;DHT22;28491;46.898;7.660;2023-05-19T05:27:10;9.50;38.70
42841;DHT22;28491;46.898;7.660;2023-05-19T05:29:35;9.60;41.30
42841;DHT22;28491;46.898;7.660;2023-05-19T05:32:01;9.60;35.90
42841;DHT22;28491;46.898;7.660;2023-05-19T05:34:27;9.60;28.80
42841;DHT22;28491;46.898;7.660;2023-05-19T05:36:52;9.50;31.50
42841;DHT22;28491;46.898;7.660;2023-05-19T05:39:18;9.60;34.40
42841;DHT22;28491;46.898;7.660;2023-05-19T05:41:43;9.70;31.80
42841;DHT22;28491;46.898;7.660;2023-05-19T05:44:09;9.60;36.60
42841;DHT22;28491;46.898;7.660;2023-05-19T05:46:34;9.50;36.90
42841;DHT22;28491;46.898;7.660;2023-05-19T05:49:00;9.60;28.30
42841;DHT22;28491;46.898;7.660;2023-05-19T05:51:26;9.70;31.10
42841;DHT22;28491;46.898;7.660;2023-05-19T05:53:53;9.80;28.10
42841;DHT22;28491;46.898;7.660;2023-05-19T05:56:19;9.70;31.50
42841;DHT22;28491;46.898;7.660;2023-05-19T05:58:46;9.60;31.40
42841;DHT22;28491;46.898;7.660;2023-05-19T06:01:11;9.50;29.50
42841;DHT22;28491;46.898;7.660;2023-05-19T06:03:41;9.50;35.20
42841;DHT22;28491;46.898;7.660;2023-05-19T06:06:09;9.50;39.10
42841;DHT22;28491;46.898;7.660;2023-05-19T06:08:35;9.40;38.00
42841;DHT22;28491;46.898;7.660;2023-05-19T06:11:01;9.50;37.30
42841;DHT22;28491;46.898;7.660;2023-05-19T06:13:33;9.60;40.40
42841;DHT22;28491;46.898;7.660;2023-05-19T06:15:59;9.60;34.80
42841;DHT22;28491;46.898;7.660;2023-05-19T06:18:24;9.70;34.20
42841;DHT22;28491;46.898;7.660;2023-05-19T06:20:50;9.80;34.00
42841;DHT22;28491;46.898;7.660;2023-05-19T06:23:15;9.90;29.60
42841;DHT22;28491;46.898;7.660;2023-05-19T06:25:41;10.00;30.00
42841;DHT22;28491;46.898;7.660;2023-05-19T06:28:06;10.20;22.70
42841;DHT22;28491;46.898;7.660;2023-05-19T06:30:32;10.30;15.30
42841;DHT22;28491;46.898;7.660;2023-05-19T06:32:57;10.50;17.70
42841;DHT22;28491;46.898;7.660;2023-05-19T06:35:23;10.80;7.80
42841;DHT22;28491;46.898;7.660;2023-05-19T06:37:48;10.70;10.60
42841;DHT22;28491;46.898;7.660;2023-05-19T06:40:14;10.80;13.10
42841;DHT22;28491;46.898;7.660;2023-05-19T06:42:39;10.80;14.10
42841;DHT22;28491;46.898;7.660;2023-05-19T06:45:05;10.60;8.20
42841;DHT22;28491;46.898;7.660;2023-05-19T06:47:31;10.80;6.80
42841;DHT22;28491;46.898;7.660;2023-05-19T06:49:56;10.90;1.00
42841;DHT22;28491;46.898;7.660;2023-05-19T06:52:23;11.10;1.10
42841;DHT22;28491;46.898;7.660;2023-05-19T06:54:48;11.20;1.00
42841;DHT22;28491;46.898;7.660;2023-05-19T06:57:14;11.50;1.00
42841;DHT22;28491;46.898;7.660;2023-05-19T06:59:40;12.00;1.00
42841;DHT22;28491;46.898;7.660;2023-05-19T07:02:07;12.40;1.00
42841;DHT22;28491;46.898;7.660;2023-05-19T07:04:33;12.80;1.00
42841;DHT22;28491;46.898;7.660;2023-05-19T07:06:58;13.40;1.00
42841;DHT22;28491;46.898;7.660;2023-05-19T07:09:24;13.90;1.00
42841;DHT22;28491;46.898;7.660;2023-05-19T07:11:49;14.10;1.00
42841;DHT22;28491;46.898;7.660;2023-05-19T07:14:16;14.30;1.00
42841;DHT22;28491;46.898;7.660;2023-05-19T07:16:42;14.30;1.00
42841;DHT22;28491;46.898;7.660;2023-05-19T07:19:07;14.60;1.00
42841;DHT22;28491;46.898;7.660;2023-05-19T07:21:33;14.80;1.00
42841;DHT22;28491;46.898;7.660;2023-05-19T07:23:58;14.40;1.00
42841;DHT22;28491;46.898;7.660;2023-05-19T07:26:24;13.70;1.00
42841;DHT22;28491;46.898;7.660;2023-05-19T07:28:50;13.30;1.00
42841;DHT22;28491;46.898;7.660;2023-05-19T07:31:16;13.40;1.00
42841;DHT22;28491;46.898;7.660;2023-05-19T07:33:41;13.70;1.00
42841;DHT22;28491;46.898;7.660;2023-05-19T07:36:07;14.40;1.00
42841;DHT22;28491;46.898;7.660;2023-05-19T07:38:33;14.20;1.00
42841;DHT22;28491;46.898;7.660;2023-05-19T07:40:59;14.70;1.00
42841;DHT22;28491;46.898;7.660;2023-05-19T07:43:26;15.00;1.00
42841;DHT22;28491;46.898;7.660;2023-05-19T07:45:51;14.80;1.00
42841;DHT22;28491;46.898;7.660;2023-05-19T07:48:18;15.20;1.00
42841;DHT22;28491;46.898;7.660;2023-05-19T07:50:46;15.40;1.00
42841;DHT22;28491;46.898;7.660;2023-05-19T07:53:12;15.20;1.00
42841;DHT22;28491;46.898;7.660;2023-05-19T07:55:38;15.10;1.00
42841;DHT22;28491;46.898;7.660;2023-05-19T07:58:03;15.00;1.00
42841;DHT22;28491;46.898;7.660;2023-05-19T08:00:29;14.90;1.00
42841;DHT22;28491;46.898;7.660;2023-05-19T08:02:55;15.00;1.00
42841;DHT22;28491;46.898;7.660;2023-05-19T08:05:21;14.70;1.00
42841;DHT22;28491;46.898;7.660;2023-05-19T08:07:47;14.60;1.00
42841;DHT22;28491;46.898;7.660;2023-05-19T08:10:13;14.50;1.00
42841;DHT22;28491;46.898;7.660;2023-05-19T08:12:38;14.80;1.00
42841;DHT22;28491;46.898;7.660;2023-05-19T08:15:04;15.30;1.00
42841;DHT22;28491;46.898;7.660;2023-05-19T08:17:30;14.80;1.00
42841;DHT22;28491;46.898;7.660;2023-05-19T08:19:56;14.20;1.00
42841;DHT22;28491;46.898;7.660;2023-05-19T08:22:21;13.80;1.00
42841;DHT22;28491;46.898;7.660;2023-05-19T08:24:47;13.70;1.00
42841;DHT22;28491;46.898;7.660;2023-05-19T08:27:14;14.10;1.00
42841;DHT22;28491;46.898;7.660;2023-05-19T08:29:41;14.50;1.00
42841;DHT22;28491;46.898;7.660;2023-05-19T08:32:06;15.10;1.00
42841;DHT22;28491;46.898;7.660;2023-05-19T08:34:32;15.40;1.00
42841;DHT22;28491;46.898;7.660;2023-05-19T08:36:58;15.70;1.00
42841;DHT22;28491;46.898;7.660;2023-05-19T08:39:24;15.60;1.00
42841;DHT22;28491;46.898;7.660;2023-05-19T08:41:54;15.80;1.00
42841;DHT22;28491;46.898;7.660;2023-05-19T08:44:20;16.00;1.00
42841;DHT22;28491;46.898;7.660;2023-05-19T08:46:46;16.70;1.00
42841;DHT22;28491;46.898;7.660;2023-05-19T08:49:13;16.40;1.00
42841;DHT22;28491;46.898;7.660;2023-05-19T08:54:16;16.10;1.00
42841;DHT22;28491;46.898;7.660;2023-05-19T08:56:43;16.40;1.00
42841;DHT22;28491;46.898;7.660;2023-05-19T08:59:12;16.80;1.00
42841;DHT22;28491;46.898;7.660;2023-05-19T09:01:41;16.50;1.00
42841;DHT22;28491;46.898;7.660;2023-05-19T09:04:07;16.10;1.00
42841;DHT22;28491;46.898;7.660;2023-05-19T09:06:33;16.20;1.00
42841;DHT22;28491;46.898;7.660;2023-05-19T09:08:59;15.70;1.00
42841;DHT22;28491;46.898;7.660;2023-05-19T09:11:25;15.50;1.00
42841;DHT22;28491;46.898;7.660;2023-05-19T09:13:51;15.20;1.00
42841;DHT22;28491;46.898;7.660;2023-05-19T09:16:16;15.10;1.00
42841;DHT22;28491;46.898;7.660;2023-05-19T09:18:55;15.00;1.00
42841;DHT22;28491;46.898;7.660;2023-05-19T09:21:30;14.80;1.00
42841;DHT22;28491;46.898;7.660;2023-05-19T09:24:06;14.80;1.00
42841;DHT22;28491;46.898;7.660;2023-05-19T09:26:39;14.70;1.00
42841;DHT22;28491;46.898;7.660;2023-05-19T09:29:15;14.60;1.00
42841;DHT22;28491;46.898;7.660;2023-05-19T09:31:51;14.60;1.00
42841;DHT22;28491;46.898;7.660;2023-05-19T09:34:18;14.80;1.00
42841;DHT22;28491;46.898;7.660;2023-05-19T09:36:45;14.70;1.00
42841;DHT22;28491;46.898;7.660;2023-05-19T09:39:18;14.70;1.00
42841;DHT22;28491;46.898;7.660;2023-05-19T09:41:44;15.00;1.00
42841;DHT22;28491;46.898;7.660;2023-05-19T09:44:27;15.40;1.00
42841;DHT22;28491;46.898;7.660;2023-05-19T09:46:55;15.40;1.00
42841;DHT22;28491;46.898;7.660;2023-05-19T09:49:25;15.40;1.00
42841;DHT22;28491;46.898;7.660;2023-05-19T09:51:58;15.40;1.00
42841;DHT22;28491;46.898;7.660;2023-05-19T09:54:25;15.40;1.00
42841;DHT22;28491;46.898;7.660;2023-05-19T09:57:02;15.30;1.00
42841;DHT22;28491;46.898;7.660;2023-05-19T09:59:29;15.20;1.00
42841;DHT22;28491;46.898;7.660;2023-05-19T10:01:57;14.90;1.00
42841;DHT22;28491;46.898;7.660;2023-05-19T10:04:24;15.00;1.00
42841;DHT22;28491;46.898;7.660;2023-05-19T10:06:51;15.40;1.00
42841;DHT22;28491;46.898;7.660;2023-05-19T10:09:24;15.50;1.00
42841;DHT22;28491;46.898;7.660;2023-05-19T10:11:57;15.50;1.00
42841;DHT22;28491;46.898;7.660;2023-05-19T10:14:24;15.40;1.00
42841;DHT22;28491;46.898;7.660;2023-05-19T10:16:51;15.20;1.00
42841;DHT22;28491;46.898;7.660;2023-05-19T10:19:20;14.80;1.00
42841;DHT22;28491;46.898;7.660;2023-05-19T10:21:47;14.50;1.00
42841;DHT22;28491;46.898;7.660;2023-05-19T10:24:13;14.30;1.00
42841;DHT22;28491;46.898;7.660;2023-05-19T10:26:59;14.20;1.00
42841;DHT22;28491;46.898;7.660;2023-05-19T10:29:30;14.10;1.00
42841;DHT22;28491;46.898;7.660;2023-05-19T10:32:01;14.10;1.00
42841;DHT22;28491;46.898;7.660;2023-05-19T10:39:51;14.20;1.00
42841;DHT22;28491;46.898;7.660;2023-05-19T10:42:35;14.10;1.00
42841;DHT22;28491;46.898;7.660;2023-05-19T10:47:34;14.20;1.00
42841;DHT22;28491;46.898;7.660;2023-05-19T10:50:01;14.20;1.00
42841;DHT22;28491;46.898;7.660;2023-05-19T10:52:29;14.20;1.00
42841;DHT22;28491;46.898;7.660;2023-05-19T10:54:55;14.10;1.00
42841;DHT22;28491;46.898;7.660;2023-05-19T10:57:25;14.20;1.00
42841;DHT22;28491;46.898;7.660;2023-05-19T10:59:56;14.30;1.00
42841;DHT22;28491;46.898;7.660;2023-05-19T11:02:41;14.30;1.00
42841;DHT22;28491;46.898;7.660;2023-05-19T11:05:09;14.30;1.00
42841;DHT22;28491;46.898;7.660;2023-05-19T11:07:35;14.30;1.00
42841;DHT22;28491;46.898;7.660;2023-05-19T11:10:05;14.40;1.00
42841;DHT22;28491;46.898;7.660;2023-05-19T11:12:39;14.70;1.00
42841;DHT22;28491;46.898;7.660;2023-05-19T11:15:08;14.70;1.00
42841;DHT22;28491;46.898;7.660;2023-05-19T11:17:34;15.00;1.00
42841;DHT22;28491;46.898;7.660;2023-05-19T11:20:00;15.10;1.00
42841;DHT22;28491;46.898;7.660;2023-05-19T11:22:26;15.10;1.00
42841;DHT22;28491;46.898;7.660;2023-05-19T11:24:55;15.30;1.00
42841;DHT22;28491;46.898;7.660;2023-05-19T11:27:33;15.40;1.00
42841;DHT22;28491;46.898;7.660;2023-05-19T11:30:11;15.40;1.00
42841;DHT22;28491;46.898;7.660;2023-05-19T11:32:39;15.40;1.00
42841;DHT22;28491;46.898;7.660;2023-05-19T11:35:07;15.60;1.00
42841;DHT22;28491;46.898;7.660;2023-05-19T11:37:34;15.30;1.00
42841;DHT22;28491;46.898;7.660;2023-05-19T11:40:02;15.20;1.00
42841;DHT22;28491;46.898;7.660;2023-05-19T11:42:30;15.30;1.00
42841;DHT22;28491;46.898;7.660;2023-05-19T11:44:56;15.20;1.00
42841;DHT22;28491;46.898;7.660;2023-05-19T11:47:21;15.30;1.00
42841;DHT22;28491;46.898;7.660;2023-05-19T11:49:47;15.30;1.00
42841;DHT22;28491;46.898;7.660;2023-05-19T11:52:13;14.90;1.00
42841;DHT22;28491;46.898;7.660;2023-05-19T12:22:46;15.40;1.00
42841;DHT22;28491;46.898;7.660;2023-05-19T12:25:12;15.50;1.00
42841;DHT22;28491;46.898;7.660;2023-05-19T12:27:41;15.30;1.00
42841;DHT22;28491;46.898;7.660;2023-05-19T12:30:08;15.10;1.00
42841;DHT22;28491;46.898;7.660;2023-05-19T12:32:34;15.00;1.00
42841;DHT22;28491;46.898;7.660;2023-05-19T12:35:02;15.00;1.00
42841;DHT22;28491;46.898;7.660;2023-05-19T12:37:32;14.90;1.00
42841;DHT22;28491;46.898;7.660;2023-05-19T12:39:59;14.90;1.00
42841;DHT22;28491;46.898;7.660;2023-05-19T12:42:28;14.90;1.00
42841;DHT22;28491;46.898;7.660;2023-05-19T12:44:56;14.50;1.00
42841;DHT22;28491;46.898;7.660;2023-05-19T12:47:27;14.50;1.00
42841;DHT22;28491;46.898;7.660;2023-05-19T12:52:20;14.50;1.00
42841;DHT22;28491;46.898;7.660;2023-05-19T12:54:57;14.40;1.00
42841;DHT22;28491;46.898;7.660;2023-05-19T12:57:22;14.40;1.00
42841;DHT22;28491;46.898;7.660;2023-05-19T12:59:49;14.40;1.00
42841;DHT22;28491;46.898;7.660;2023-05-19T13:02:15;14.30;1.00
42841;DHT22;28491;46.898;7.660;2023-05-19T13:04:41;14.20;1.00
42841;DHT22;28491;46.898;7.660;2023-05-19T13:07:06;14.10;1.00
42841;DHT22;28491;46.898;7.660;2023-05-19T13:09:32;14.20;1.00
42841;DHT22;28491;46.898;7.660;2023-05-19T13:11:59;14.10;1.00
42841;DHT22;28491;46.898;7.660;2023-05-19T13:14:25;14.20;1.00
42841;DHT22;28491;46.898;7.660;2023-05-19T13:16:50;14.20;1.00
42841;DHT22;28491;46.898;7.660;2023-05-19T13:19:18;14.20;1.00
42841;DHT22;28491;46.898;7.660;2023-05-19T13:21:44;14.10;1.00
42841;DHT22;28491;46.898;7.660;2023-05-19T13:24:14;14.00;1.00
42841;DHT22;28491;46.898;7.660;2023-05-19T13:26:40;14.00;1.00
42841;DHT22;28491;46.898;7.660;2023-05-19T13:29:06;13.90;1.00
42841;DHT22;28491;46.898;7.660;2023-05-19T13:31:31;13.80;1.00
42841;DHT22;28491;46.898;7.660;2023-05-19T13:33:57;13.70;1.00
42841;DHT22;28491;46.898;7.660;2023-05-19T13:36:23;13.80;1.00
42841;DHT22;28491;46.898;7.660;2023-05-19T13:38:49;13.80;1.00
42841;DHT22;28491;46.898;7.660;2023-05-19T13:41:14;13.90;1.00
42841;DHT22;28491;46.898;7.660;2023-05-19T13:43:40;14.00;1.00
42841;DHT22;28491;46.898;7.660;2023-05-19T13:46:05;13.90;1.00
42841;DHT22;28491;46.898;7.660;2023-05-19T13:48:31;14.00;1.00
42841;DHT22;28491;46.898;7.660;2023-05-19T13:50:56;14.00;1.00
42841;DHT22;28491;46.898;7.660;2023-05-19T13:53:22;14.10;1.00
42841;DHT22;28491;46.898;7.660;2023-05-19T13:55:48;14.10;1.00
42841;DHT22;28491;46.898;7.660;2023-05-19T13:58:13;14.10;1.00
42841;DHT22;28491;46.898;7.660;2023-05-19T14:00:41;14.00;1.00
42841;DHT22;28491;46.898;7.660;2023-05-19T14:03:06;14.10;1.00
42841;DHT22;28491;46.898;7.660;2023-05-19T14:05:32;13.90;1.00
42841;DHT22;28491;46.898;7.660;2023-05-19T14:07:58;13.90;1.00
42841;DHT22;28491;46.898;7.660;2023-05-19T14:10:25;14.00;1.00
42841;DHT22;28491;46.898;7.660;2023-05-19T14:12:51;14.10;1.00
42841;DHT22;28491;46.898;7.660;2023-05-19T14:15:18;14.00;1.00
42841;DHT22;28491;46.898;7.660;2023-05-19T14:17:44;14.00;1.00
42841;DHT22;28491;46.898;7.660;2023-05-19T14:20:10;14.10;1.00
42841;DHT22;28491;46.898;7.660;2023-05-19T14:22:35;14.00;1.00
42841;DHT22;28491;46.898;7.660;2023-05-19T14:25:01;13.90;1.00
42841;DHT22;28491;46.898;7.660;2023-05-19T14:27:27;13.70;1.00
42841;DHT22;28491;46.898;7.660;2023-05-19T14:29:52;13.60;1.00
42841;DHT22;28491;46.898;7.660;2023-05-19T14:32:18;13.60;1.00
42841;DHT22;28491;46.898;7.660;2023-05-19T14:34:43;13.60;1.00
42841;DHT22;28491;46.898;7.660;2023-05-19T14:37:09;13.50;1.00
42841;DHT22;28491;46.898;7.660;2023-05-19T14:39:35;13.50;1.00
42841;DHT22;28491;46.898;7.660;2023-05-19T14:42:00;13.40;1.00
42841;DHT22;28491;46.898;7.660;2023-05-19T14:44:30;13.40;1.00
42841;DHT22;28491;46.898;7.660;2023-05-19T14:46:57;13.30;1.00
42841;DHT22;28491;46.898;7.660;2023-05-19T14:49:23;13.30;1.00
42841;DHT22;28491;46.898;7.660;2023-05-19T14:51:48;13.20;1.00
42841;DHT22;28491;46.898;7.660;2023-05-19T14:54:14;13.20;1.00
42841;DHT22;28491;46.898;7.660;2023-05-19T14:56:39;13.00;1.00
42841;DHT22;28491;46.898;7.660;2023-05-19T14:59:05;12.90;1.00
42841;DHT22;28491;46.898;7.660;2023-05-19T15:01:30;12.90;1.00
42841;DHT22;28491;46.898;7.660;2023-05-19T15:03:56;12.80;1.00
42841;DHT22;28491;46.898;7.660;2023-05-19T15:06:21;12.80;1.00
42841;DHT22;28491;46.898;7.660;2023-05-19T15:08:47;12.80;1.00
42841;DHT22;28491;46.898;7.660;2023-05-19T15:11:13;12.80;1.00
42841;DHT22;28491;46.898;7.660;2023-05-19T15:13:38;12.90;1.00
42841;DHT22;28491;46.898;7.660;2023-05-19T15:16:04;12.90;1.00
42841;DHT22;28491;46.898;7.660;2023-05-19T15:18:33;12.90;1.00
42841;DHT22;28491;46.898;7.660;2023-05-19T15:20:59;12.90;1.00
42841;DHT22;28491;46.898;7.660;2023-05-19T15:23:25;12.90;1.00
42841;DHT22;28491;46.898;7.660;2023-05-19T15:25:51;13.00;1.00
42841;DHT22;28491;46.898;7.660;2023-05-19T15:28:18;13.00;1.00
42841;DHT22;28491;46.898;7.660;2023-05-19T15:30:43;13.00;1.00
42841;DHT22;28491;46.898;7.660;2023-05-19T15:33:10;13.00;1.00
42841;DHT22;28491;46.898;7.660;2023-05-19T15:35:36;12.90;1.00
42841;DHT22;28491;46.898;7.660;2023-05-19T15:38:01;12.90;1.00
42841;DHT22;28491;46.898;7.660;2023-05-19T15:40:33;12.80;1.00
42841;DHT22;28491;46.898;7.660;2023-05-19T15:42:59;12.70;1.00
42841;DHT22;28491;46.898;7.660;2023-05-19T15:45:24;12.70;1.00
42841;DHT22;28491;46.898;7.660;2023-05-19T15:47:50;12.70;1.00
42841;DHT22;28491;46.898;7.660;2023-05-19T15:50:15;12.80;1.00
42841;DHT22;28491;46.898;7.660;2023-05-19T15:52:41;12.70;1.00
42841;DHT22;28491;46.898;7.660;2023-05-19T15:55:07;12.80;1.00
42841;DHT22;28491;46.898;7.660;2023-05-19T15:57:33;12.70;1.00
42841;DHT22;28491;46.898;7.660;2023-05-19T15:59:58;12.70;1.00
42841;DHT22;28491;46.898;7.660;2023-05-19T16:02:24;12.70;1.00
42841;DHT22;28491;46.898;7.660;2023-05-19T16:04:49;12.70;1.00
42841;DHT22;28491;46.898;7.660;2023-05-19T16:07:15;12.70;1.00
42841;DHT22;28491;46.898;7.660;2023-05-19T16:09:41;12.70;1.00
42841;DHT22;28491;46.898;7.660;2023-05-19T16:12:07;12.60;1.00
42841;DHT22;28491;46.898;7.660;2023-05-19T16:14:32;12.60;1.00
42841;DHT22;28491;46.898;7.660;2023-05-19T16:17:01;12.60;1.00
42841;DHT22;28491;46.898;7.660;2023-05-19T16:19:27;12.60;1.00
42841;DHT22;28491;46.898;7.660;2023-05-19T16:21:52;12.70;1.00
42841;DHT22;28491;46.898;7.660;2023-05-19T16:24:18;12.70;1.00
42841;DHT22;28491;46.898;7.660;2023-05-19T16:26:44;12.70;1.00
42841;DHT22;28491;46.898;7.660;2023-05-19T16:29:09;12.70;1.00
42841;DHT22;28491;46.898;7.660;2023-05-19T16:31:35;12.80;1.00
42841;DHT22;28491;46.898;7.660;2023-05-19T16:34:00;12.90;1.00
42841;DHT22;28491;46.898;7.660;2023-05-19T16:36:26;13.00;1.00
42841;DHT22;28491;46.898;7.660;2023-05-19T16:38:51;13.00;1.00
42841;DHT22;28491;46.898;7.660;2023-05-19T16:41:18;12.90;1.00